Time;durP1;ratioP1;P1;durP2;ratioP2;P2;SDS_P1;SDS_P2;PMS_P1;PMS_P2;Temp;Humidity;BMP_temperature;BMP_pressure;BME280_temperature;BME280_humidity;BME280_pressure;Samples;Min_cycle;Max_cycle;Signal;HPM_P1;HPM_P2
2021/10/25 00:01:56;;;;;;;;;36.00;30.50;;;;;12.23;62.70;101713.28;4943432;28;45324;-64
2021/10/25 00:04:21;;;;;;;;;33.25;30.50;;;;;12.23;62.87;101717.72;4943252;28;46136;-63
2021/10/25 00:06:47;;;;;;;;;31.50;29.25;;;;;12.21;62.86;101709.88;4942979;28;45315;-63
2021/10/25 00:09:12;;;;;;;;;31.75;28.25;;;;;12.18;62.77;101710.06;4947809;28;45357;-60
2021/10/25 00:11:38;;;;;;;;;35.25;31.50;;;;;12.16;62.66;101706.63;4948675;28;45459;-60
2021/10/25 00:14:04;;;;;;;;;33.75;28.00;;;;;12.16;62.58;101703.97;4949646;28;45452;-60
2021/10/25 00:16:29;;;;;;;;;31.50;31.25;;;;;12.16;62.61;101711.03;4950808;28;45338;-60
2021/10/25 00:18:55;;;;;;;;;35.25;27.75;;;;;12.14;62.76;101705.84;4950846;28;45580;-61
2021/10/25 00:21:20;;;;;;;;;36.25;29.50;;;;;12.13;62.80;101706.78;4950959;28;45613;-61
2021/10/25 00:23:46;;;;;;;;;34.00;28.00;;;;;12.14;62.82;101702.34;4949917;28;45389;-61
2021/10/25 00:26:11;;;;;;;;;38.00;29.50;;;;;12.11;62.89;101698.09;4950667;28;45211;-62
2021/10/25 00:28:37;;;;;;;;;28.50;27.50;;;;;12.10;62.65;101698.16;4953159;28;45213;-60
2021/10/25 00:31:03;;;;;;;;;31.25;25.00;;;;;12.08;62.74;101706.13;4954187;28;45834;-60
2021/10/25 00:33:28;;;;;;;;;31.75;29.75;;;;;12.03;62.85;101705.53;4952144;28;45303;-60
2021/10/25 00:35:54;;;;;;;;;34.25;28.50;;;;;12.01;62.88;101699.47;4950138;28;45306;-59
2021/10/25 00:38:20;;;;;;;;;31.75;28.25;;;;;11.99;62.83;101688.97;4951639;28;45206;-60
2021/10/25 00:40:46;;;;;;;;;37.25;29.25;;;;;11.97;62.77;101684.72;4953275;28;45480;-59
2021/10/25 00:43:11;;;;;;;;;29.75;28.50;;;;;11.94;62.62;101687.50;4949950;28;45496;-61
2021/10/25 00:45:37;;;;;;;;;30.00;28.25;;;;;11.88;62.89;101680.75;4952283;28;45453;-60
2021/10/25 00:48:03;;;;;;;;;30.25;28.00;;;;;11.83;62.93;101681.91;4949176;28;45400;-60
2021/10/25 00:50:29;;;;;;;;;32.50;29.75;;;;;11.80;62.82;101688.19;4948968;28;45404;-59
2021/10/25 00:52:54;;;;;;;;;37.75;30.75;;;;;11.77;62.79;101679.50;4952437;28;46003;-59
2021/10/25 00:55:21;;;;;;;;;34.00;30.25;;;;;11.78;63.01;101689.16;4952279;28;45487;-60
2021/10/25 00:57:46;;;;;;;;;29.50;26.75;;;;;11.75;63.21;101679.59;4951971;28;45293;-59
2021/10/25 01:00:12;;;;;;;;;31.25;29.00;;;;;11.75;62.87;101676.97;4949651;28;45587;-60
2021/10/25 01:02:39;;;;;;;;;33.00;28.00;;;;;11.78;63.00;101692.66;4951809;28;45251;-59
2021/10/25 01:05:06;;;;;;;;;25.75;22.00;;;;;11.76;62.79;101691.88;4944280;28;45330;-60
2021/10/25 01:07:33;;;;;;;;;31.00;26.25;;;;;11.77;63.16;101687.44;4942994;28;45520;-60
2021/10/25 01:10:01;;;;;;;;;30.25;28.25;;;;;11.78;62.79;101691.81;4942473;28;45257;-60
2021/10/25 01:12:26;;;;;;;;;35.75;30.75;;;;;11.80;62.73;101695.22;4942689;28;45996;-59
2021/10/25 01:14:52;;;;;;;;;32.25;27.50;;;;;11.79;62.75;101697.00;4942390;28;45433;-60
2021/10/25 01:17:17;;;;;;;;;34.75;26.50;;;;;11.81;62.34;101686.41;4942767;28;45339;-60
2021/10/25 01:19:43;;;;;;;;;27.00;24.25;;;;;11.82;62.61;101693.38;4942607;28;45161;-60
2021/10/25 01:22:08;;;;;;;;;31.25;27.00;;;;;11.86;62.77;101697.59;4943069;28;45352;-60
2021/10/25 01:24:34;;;;;;;;;25.50;23.50;;;;;11.90;62.59;101688.59;4942144;28;45220;-60
2021/10/25 01:27:00;;;;;;;;;32.75;29.00;;;;;11.94;62.41;101696.28;4942702;28;45212;-60
2021/10/25 01:29:25;;;;;;;;;31.00;28.50;;;;;11.95;62.40;101692.72;4942566;28;45473;-60
2021/10/25 01:31:51;;;;;;;;;34.00;28.50;;;;;11.99;62.33;101702.19;4942339;28;45392;-60
2021/10/25 01:34:16;;;;;;;;;33.00;26.50;;;;;11.99;62.31;101703.97;4942171;28;45430;-60
2021/10/25 01:36:42;;;;;;;;;25.50;23.25;;;;;11.96;62.65;101704.97;4942484;28;45401;-60
2021/10/25 01:39:09;;;;;;;;;38.50;26.00;;;;;11.95;62.33;101703.28;4942360;28;45441;-60
2021/10/25 01:41:35;;;;;;;;;25.00;19.75;;;;;11.96;62.35;101697.06;4941947;28;46337;-60
2021/10/25 01:44:00;;;;;;;;;29.50;27.50;;;;;11.96;62.25;101698.84;4942252;28;45320;-60
2021/10/25 01:46:26;;;;;;;;;26.75;22.75;;;;;11.95;62.66;101694.50;4942173;28;45257;-60
2021/10/25 01:48:51;;;;;;;;;25.50;23.00;;;;;11.97;62.67;101703.19;4942292;28;45545;-60
2021/10/25 01:51:18;;;;;;;;;28.25;22.50;;;;;11.98;62.57;101700.47;4942334;28;45327;-60
2021/10/25 01:53:45;;;;;;;;;31.25;28.00;;;;;12.02;62.61;101694.13;4941877;28;45403;-60
2021/10/25 01:56:11;;;;;;;;;37.25;28.75;;;;;12.04;62.39;101691.41;4942093;28;45426;-60
2021/10/25 01:58:38;;;;;;;;;29.75;27.75;;;;;12.09;62.86;101685.91;4942192;28;45753;-60
2021/10/25 02:01:05;;;;;;;;;33.00;27.75;;;;;12.10;62.30;101682.31;4942070;28;45435;-60
2021/10/25 02:03:33;;;;;;;;;31.50;26.75;;;;;12.14;62.70;101687.34;4941908;28;45558;-60
2021/10/25 02:05:59;;;;;;;;;24.00;23.25;;;;;12.17;62.20;101684.56;4942344;28;46422;-60
2021/10/25 02:08:25;;;;;;;;;24.50;21.50;;;;;12.19;62.15;101676.56;4941791;28;45501;-61
2021/10/25 02:10:51;;;;;;;;;25.75;24.25;;;;;12.23;62.12;101680.75;4941772;28;46147;-60
2021/10/25 02:13:17;;;;;;;;;22.25;20.50;;;;;12.21;61.93;101682.63;4941720;28;45351;-60
2021/10/25 02:15:46;;;;;;;;;22.75;19.25;;;;;12.20;61.91;101681.75;4942249;28;45346;-60
2021/10/25 02:18:13;;;;;;;;;24.50;20.75;;;;;12.23;62.00;101672.81;4945190;28;45239;-60
2021/10/25 02:20:40;;;;;;;;;21.75;20.75;;;;;12.26;61.67;101673.53;4945203;28;45345;-60
2021/10/25 02:23:07;;;;;;;;;31.50;26.75;;;;;12.28;61.36;101669.03;4944917;28;45423;-60
2021/10/25 02:25:33;;;;;;;;;29.25;23.50;;;;;12.30;61.39;101667.16;4945058;28;45378;-60
2021/10/25 02:28:00;;;;;;;;;27.50;21.75;;;;;12.32;61.28;101659.13;4945113;28;45414;-60
2021/10/25 02:30:25;;;;;;;;;26.00;23.50;;;;;12.35;61.25;101664.28;4945154;28;45263;-60
2021/10/25 02:32:51;;;;;;;;;29.50;25.75;;;;;12.37;61.31;101667.69;4944783;28;45236;-60
2021/10/25 02:35:17;;;;;;;;;24.75;21.50;;;;;12.39;61.22;101671.09;4945277;28;45306;-61
2021/10/25 02:37:43;;;;;;;;;24.00;21.25;;;;;12.40;61.41;101667.53;4944986;28;45509;-60
2021/10/25 02:40:09;;;;;;;;;26.50;23.00;;;;;12.41;61.44;101661.31;4944346;28;45197;-60
2021/10/25 02:42:34;;;;;;;;;23.75;22.50;;;;;12.43;61.13;101667.38;4944858;28;45431;-60
2021/10/25 02:45:00;;;;;;;;;28.00;25.00;;;;;12.43;61.14;101651.53;4945040;28;45482;-60
2021/10/25 02:47:25;;;;;;;;;30.75;23.75;;;;;12.44;61.22;101655.00;4944575;28;45454;-60
2021/10/25 02:49:51;;;;;;;;;30.25;25.00;;;;;12.45;61.09;101654.94;4944687;28;45945;-59
2021/10/25 02:52:16;;;;;;;;;24.50;22.75;;;;;12.46;61.11;101648.69;4944687;28;45430;-60
2021/10/25 02:54:42;;;;;;;;;25.75;22.00;;;;;12.47;61.21;101642.47;4944485;28;45319;-60
2021/10/25 02:57:07;;;;;;;;;24.25;23.75;;;;;12.49;61.11;101629.22;4944634;28;45424;-60
2021/10/25 02:59:33;;;;;;;;;20.25;18.25;;;;;12.49;60.89;101627.41;4944531;28;46228;-60
2021/10/25 03:01:58;;;;;;;;;29.75;23.25;;;;;12.51;60.75;101636.13;4944379;28;45327;-60
2021/10/25 03:04:24;;;;;;;;;29.25;24.50;;;;;12.53;60.84;101636.03;4944690;28;45338;-60
2021/10/25 03:06:49;;;;;;;;;20.75;18.25;;;;;12.54;60.87;101635.09;4944402;28;45340;-59
2021/10/25 03:09:15;;;;;;;;;25.75;23.00;;;;;12.55;60.54;101634.16;4944203;28;45733;-60
2021/10/25 03:11:40;;;;;;;;;24.00;19.00;;;;;12.55;60.67;101629.72;4944366;28;45301;-60
2021/10/25 03:14:06;;;;;;;;;26.75;22.75;;;;;12.57;60.66;101632.31;4944464;28;45335;-60
2021/10/25 03:16:31;;;;;;;;;20.75;19.00;;;;;12.58;60.56;101629.56;4944247;28;45634;-60
2021/10/25 03:18:57;;;;;;;;;24.00;20.50;;;;;12.59;60.61;101627.78;4943335;28;45276;-60
2021/10/25 03:21:23;;;;;;;;;26.75;24.50;;;;;12.59;60.83;101630.41;4944099;28;45417;-60
2021/10/25 03:23:50;;;;;;;;;31.50;27.75;;;;;12.58;61.73;101634.84;4944290;28;45239;-60
2021/10/25 03:26:16;;;;;;;;;23.50;21.50;;;;;12.56;61.94;101639.38;4943870;28;45500;-60
2021/10/25 03:28:42;;;;;;;;;24.50;22.50;;;;;12.55;62.72;101635.00;4944076;28;45343;-60
2021/10/25 03:31:08;;;;;;;;;25.00;23.00;;;;;12.54;63.04;101637.72;4943976;28;45488;-60
2021/10/25 03:33:35;;;;;;;;;23.25;20.25;;;;;12.51;63.28;101633.47;4944253;28;45247;-60
2021/10/25 03:36:04;;;;;;;;;23.25;23.25;;;;;12.49;63.74;101630.06;4944034;28;45511;-60
2021/10/25 03:38:31;;;;;;;;;26.75;21.25;;;;;12.48;63.46;101636.28;4943813;28;45293;-60
2021/10/25 03:40:57;;;;;;;;;25.75;24.50;;;;;12.45;64.12;101625.00;4943554;28;45424;-60
2021/10/25 03:43:25;;;;;;;;;22.50;20.50;;;;;12.42;63.61;101633.97;4944050;28;45499;-60
2021/10/25 03:45:56;;;;;;;;;24.00;23.25;;;;;12.42;63.86;101628.69;4943978;28;45465;-60
2021/10/25 03:50:49;;;;;;;;;21.25;21.00;;;;;12.44;64.18;101632.09;4943700;28;45273;-60
2021/10/25 03:53:26;;;;;;;;;24.25;22.75;;;;;12.45;64.26;101630.28;4944044;28;45394;-60
2021/10/25 03:56:03;;;;;;;;;24.75;19.25;;;;;12.44;64.08;101629.44;4943687;28;45232;-60
2021/10/25 04:25:48;;;;;;;;;23.25;23.25;;;;;12.32;67.15;101630.06;4943154;28;45527;-60
2021/10/25 04:30:31;;;;;;;;;20.75;19.25;;;;;12.25;68.08;101629.56;4943005;28;45278;-60
2021/10/25 04:32:58;;;;;;;;;25.50;23.25;;;;;12.25;68.08;101628.72;4943031;28;45338;-60
2021/10/25 04:35:24;;;;;;;;;22.75;17.25;;;;;12.25;68.49;101636.63;4943386;28;45319;-60
2021/10/25 04:37:50;;;;;;;;;22.00;20.25;;;;;12.26;68.54;101622.50;4942972;28;45610;-60
2021/10/25 04:40:16;;;;;;;;;19.50;17.75;;;;;12.26;68.79;101618.06;4942069;28;45313;-60
2021/10/25 04:42:41;;;;;;;;;26.75;19.00;;;;;12.27;69.04;101617.13;4942882;28;45336;-60
2021/10/25 04:45:07;;;;;;;;;19.75;17.00;;;;;12.29;68.37;101615.25;4943206;28;45307;-60
2021/10/25 04:47:33;;;;;;;;;19.25;16.50;;;;;12.29;68.36;101607.31;4942738;28;45175;-60
2021/10/25 04:49:59;;;;;;;;;25.00;18.00;;;;;12.30;68.68;101616.94;4943014;28;45281;-60
2021/10/25 04:52:27;;;;;;;;;19.25;17.25;;;;;12.31;68.41;101617.81;4942743;28;45191;-60
2021/10/25 04:54:53;;;;;;;;;20.75;19.25;;;;;12.31;68.43;101617.81;4942622;28;45463;-60
2021/10/25 04:57:18;;;;;;;;;23.25;20.25;;;;;12.32;68.45;101613.38;4942762;28;45432;-60
2021/10/25 04:59:44;;;;;;;;;23.00;18.00;;;;;12.33;68.37;101609.81;4942785;28;45976;-60
2021/10/25 05:02:10;;;;;;;;;25.75;19.75;;;;;12.32;68.46;101610.72;4942563;28;45331;-60
2021/10/25 05:04:36;;;;;;;;;29.75;18.00;;;;;12.32;68.81;101606.28;4942983;28;45299;-60
2021/10/25 05:07:02;;;;;;;;;22.00;18.50;;;;;12.31;69.38;101609.88;4942726;28;46432;-60
2021/10/25 05:09:27;;;;;;;;;22.25;19.50;;;;;12.34;69.60;101614.16;4942271;28;46140;-60
2021/10/25 05:11:53;;;;;;;;;25.50;17.50;;;;;12.36;69.68;101614.94;4942495;28;45275;-60
2021/10/25 05:14:18;;;;;;;;;21.00;17.25;;;;;12.36;69.60;101618.44;4942916;28;45628;-60
2021/10/25 05:16:44;;;;;;;;;18.50;17.25;;;;;12.37;69.57;101614.00;4942524;28;45239;-60
2021/10/25 05:19:09;;;;;;;;;20.00;15.25;;;;;12.38;69.81;101613.06;4942694;28;45459;-60
2021/10/25 05:21:36;;;;;;;;;17.50;16.25;;;;;12.37;69.83;101606.91;4942343;28;45260;-60
2021/10/25 05:24:02;;;;;;;;;18.25;17.50;;;;;12.38;70.14;101607.78;4942302;28;45411;-60
2021/10/25 05:26:29;;;;;;;;;12.50;12.50;;;;;12.40;70.39;101619.09;4942514;28;45525;-60
2021/10/25 05:28:54;;;;;;;;;16.00;15.50;;;;;12.38;70.57;101608.63;4942348;28;45423;-61
2021/10/25 05:31:20;;;;;;;;;17.25;12.75;;;;;12.41;70.39;101615.56;4942314;28;45339;-59
2021/10/25 05:33:45;;;;;;;;;18.25;15.75;;;;;12.41;70.51;101612.91;4942627;28;45227;-60
2021/10/25 05:36:11;;;;;;;;;13.00;13.00;;;;;12.39;70.28;101602.41;4942210;28;45168;-59
2021/10/25 05:38:37;;;;;;;;;16.75;15.25;;;;;12.37;70.57;101606.06;4942351;28;45611;-59
2021/10/25 05:41:04;;;;;;;;;15.75;15.00;;;;;12.36;70.64;101607.84;4941959;28;45236;-59
2021/10/25 05:43:30;;;;;;;;;17.25;13.50;;;;;12.36;70.56;101592.00;4942517;28;45462;-60
2021/10/25 05:45:56;;;;;;;;;19.25;16.25;;;;;12.36;70.39;101592.00;4942335;28;45347;-60
2021/10/25 05:48:22;;;;;;;;;16.50;16.00;;;;;12.36;70.43;101592.00;4941833;28;45382;-61
2021/10/25 05:50:48;;;;;;;;;21.00;17.75;;;;;12.32;70.62;101586.94;4942083;28;45389;-60
2021/10/25 05:53:15;;;;;;;;;22.50;20.25;;;;;12.29;70.15;101594.09;4945554;28;45287;-60
2021/10/25 05:55:42;;;;;;;;;27.00;21.50;;;;;12.28;70.12;101594.19;4945313;28;45261;-60
2021/10/25 05:58:18;;;;;;;;;20.75;18.00;;;;;12.25;70.09;101584.66;4945483;28;46460;-60
2021/10/25 06:00:49;;;;;;;;;19.75;17.00;;;;;12.25;70.08;101589.94;4945492;28;45270;-60
2021/10/25 06:03:18;;;;;;;;;17.50;16.75;;;;;12.24;70.37;101592.63;4945518;28;45338;-60
2021/10/25 06:05:43;;;;;;;;;19.00;16.75;;;;;12.25;69.97;101599.66;4945638;28;45639;-60
2021/10/25 06:08:10;;;;;;;;;21.00;19.25;;;;;12.24;69.95;101587.34;4944909;28;46110;-60
2021/10/25 06:10:36;;;;;;;;;17.25;17.00;;;;;12.22;70.11;101598.00;4945119;28;45289;-60
2021/10/25 06:13:05;;;;;;;;;22.25;19.75;;;;;12.23;70.05;101593.56;4945243;28;45504;-60
2021/10/25 06:15:37;;;;;;;;;26.75;21.00;;;;;12.21;70.33;101588.38;4945314;28;45460;-60
2021/10/25 06:18:07;;;;;;;;;17.00;16.00;;;;;12.20;70.18;101586.69;4944856;28;46270;-60
2021/10/25 06:20:34;;;;;;;;;24.75;19.25;;;;;12.18;70.10;101580.63;4945031;28;45362;-60
2021/10/25 06:23:07;;;;;;;;;23.50;20.50;;;;;12.18;69.98;101595.63;4944940;28;45216;-61
2021/10/25 06:25:33;;;;;;;;;22.00;18.75;;;;;12.16;70.05;101592.19;4945228;28;45415;-60
2021/10/25 06:27:58;;;;;;;;;25.50;20.75;;;;;12.15;70.06;101590.47;4944926;28;45208;-61
2021/10/25 06:30:24;;;;;;;;;22.25;20.50;;;;;12.16;69.99;101602.75;4945032;28;45172;-60
2021/10/25 06:32:51;;;;;;;;;23.00;21.00;;;;;12.15;70.06;101595.75;4944988;28;45232;-60
2021/10/25 06:35:21;;;;;;;;;26.00;23.00;;;;;12.16;70.05;101602.75;4945060;28;45426;-60
2021/10/25 06:40:17;;;;;;;;;22.75;19.50;;;;;12.16;69.98;101616.81;4944614;28;45444;-61
2021/10/25 06:42:43;;;;;;;;;18.50;18.50;;;;;12.11;70.43;101618.00;4944903;28;45391;-60
2021/10/25 06:45:13;;;;;;;;;23.25;19.50;;;;;12.10;70.65;101621.59;4945152;28;45344;-61
2021/10/25 06:47:39;;;;;;;;;22.25;20.25;;;;;12.10;70.64;101624.22;4944488;28;45914;-60
2021/10/25 06:50:04;;;;;;;;;22.50;18.50;;;;;12.11;70.72;101623.28;4944896;28;45410;-60
2021/10/25 06:52:30;;;;;;;;;24.50;19.00;;;;;12.09;70.84;101631.28;4944786;28;45342;-60
2021/10/25 06:54:56;;;;;;;;;23.25;18.50;;;;;12.09;70.98;101635.72;4943196;28;45338;-60
2021/10/25 06:57:21;;;;;;;;;24.25;19.00;;;;;12.12;70.95;101632.91;4944386;28;45708;-60
2021/10/25 06:59:47;;;;;;;;;23.00;19.00;;;;;12.11;70.23;101624.13;4944695;28;45302;-60
2021/10/25 07:02:13;;;;;;;;;21.00;19.75;;;;;12.10;70.50;101634.78;4944102;28;45231;-60
2021/10/25 07:04:39;;;;;;;;;30.75;24.75;;;;;12.12;70.61;101635.56;4944420;28;45405;-60
2021/10/25 07:07:04;;;;;;;;;24.75;22.75;;;;;12.14;70.79;101631.03;4944256;28;45482;-60
2021/10/25 07:09:30;;;;;;;;;22.50;17.50;;;;;12.15;70.62;101635.38;4944090;28;45441;-60
2021/10/25 07:11:56;;;;;;;;;27.75;24.00;;;;;12.18;70.73;101629.97;4944549;28;45164;-60
2021/10/25 07:14:28;;;;;;;;;24.75;20.25;;;;;12.21;71.25;101637.72;4944732;28;45334;-60
2021/10/25 08:10:58;;;;;;;;;26.50;22.25;;;;;12.53;72.74;101668.59;4952280;28;45910;-60
2021/10/25 08:13:30;;;;;;;;;20.75;18.50;;;;;12.57;72.55;101671.94;4950789;28;45435;-60
2021/10/25 08:15:57;;;;;;;;;16.25;16.00;;;;;12.61;72.38;101675.28;4948664;28;45396;-60
2021/10/25 08:18:35;;;;;;;;;24.25;19.50;;;;;12.63;72.48;101668.09;4951668;28;45467;-61
2021/10/25 08:21:01;;;;;;;;;27.25;21.50;;;;;12.67;72.50;101667.03;4948352;28;46276;-61
2021/10/25 08:23:26;;;;;;;;;24.00;20.25;;;;;12.69;72.34;101668.63;4951414;28;45374;-61
2021/10/25 08:25:53;;;;;;;;;21.25;17.75;;;;;12.71;72.63;101666.75;4953898;28;45299;-61
2021/10/25 08:28:18;;;;;;;;;22.25;18.25;;;;;12.76;72.82;101666.53;4950875;28;45493;-61
2021/10/25 08:30:44;;;;;;;;;26.75;23.25;;;;;12.78;72.77;101662.84;4951228;28;45853;-61
2021/10/25 08:41:09;;;;;;;;;18.75;18.00;;;;;12.95;72.79;101653.16;4951427;28;45240;-61
2021/10/25 08:43:37;;;;;;;;;23.25;20.00;;;;;12.99;72.19;101642.34;4952105;28;45554;-60
2021/10/25 08:46:06;;;;;;;;;20.25;20.00;;;;;13.03;71.94;101651.81;4949367;28;45533;-60
2021/10/25 08:48:33;;;;;;;;;23.75;18.50;;;;;13.08;72.02;101652.41;4950135;28;45223;-60
2021/10/25 08:50:58;;;;;;;;;23.75;19.00;;;;;13.12;71.91;101650.47;4953227;28;45212;-61
2021/10/25 08:53:24;;;;;;;;;17.50;16.00;;;;;13.17;71.99;101653.69;4949851;28;45422;-60
2021/10/25 08:55:51;;;;;;;;;24.75;18.00;;;;;13.20;72.15;101658.84;4949320;28;45200;-60
2021/10/25 08:58:17;;;;;;;;;21.25;18.25;;;;;13.24;72.08;101656.88;4948220;28;45501;-61
2021/10/25 09:00:47;;;;;;;;;27.25;20.25;;;;;13.28;71.80;101654.00;4950426;28;46965;-61
2021/10/25 09:03:12;;;;;;;;;25.00;20.25;;;;;13.31;71.75;101659.09;4950030;28;45421;-61
2021/10/25 09:05:39;;;;;;;;;28.50;26.50;;;;;13.35;72.31;101651.81;4950294;28;45198;-60
2021/10/25 09:08:09;;;;;;;;;21.00;18.75;;;;;13.40;71.83;101653.28;4950227;28;45564;-60
2021/10/25 09:10:39;;;;;;;;;27.00;24.75;;;;;13.46;71.99;101644.16;4951799;28;45513;-60
2021/10/25 09:13:16;;;;;;;;;25.50;21.00;;;;;13.55;71.81;101650.72;4951083;28;45257;-61
2021/10/25 09:15:47;;;;;;;;;25.00;23.25;;;;;13.58;71.44;101635.50;4949823;28;45485;-61
2021/10/25 09:18:16;;;;;;;;;21.75;20.75;;;;;13.59;71.42;101639.88;4949088;28;45220;-60
2021/10/25 09:20:47;;;;;;;;;20.50;16.50;;;;;13.60;71.33;101636.28;4949104;28;45322;-61
2021/10/25 09:23:15;;;;;;;;;20.50;19.00;;;;;13.67;71.75;101639.44;4946980;28;45312;-60
2021/10/25 09:25:41;;;;;;;;;21.00;19.00;;;;;13.72;71.31;101647.09;4949989;28;45413;-61
2021/10/25 09:28:21;;;;;;;;;22.50;18.00;;;;;13.88;71.21;101640.81;4941537;28;45539;-61
2021/10/25 09:30:52;;;;;;;;;23.00;20.50;;;;;14.00;71.22;101647.19;4948107;28;45240;-61
2021/10/25 09:33:21;;;;;;;;;23.75;23.50;;;;;14.10;70.86;101645.69;4948879;28;45523;-61
2021/10/25 09:35:54;;;;;;;;;26.50;23.25;;;;;14.15;70.86;101642.78;4950818;28;45438;-61
2021/10/25 09:38:35;;;;;;;;;26.00;22.00;;;;;14.20;70.70;101646.00;4945183;28;45366;-61
2021/10/25 09:49:33;;;;;;;;;25.25;21.75;;;;;14.38;69.98;101633.47;4940263;28;45607;-61
2021/10/25 09:52:00;;;;;;;;;22.25;21.50;;;;;14.39;70.23;101636.00;4945088;28;45558;-61
2021/10/25 09:54:28;;;;;;;;;23.75;19.00;;;;;14.42;70.27;101632.31;4940269;28;45487;-61
2021/10/25 09:57:03;;;;;;;;;29.50;21.25;;;;;14.42;70.01;101635.81;4940398;28;45655;-61
2021/10/25 09:59:49;;;;;;;;;24.75;22.25;;;;;14.45;70.02;101640.06;4941115;28;46321;-61
2021/10/25 10:02:20;;;;;;;;;21.50;19.00;;;;;14.46;70.11;101645.31;4941442;28;45271;-61
2021/10/25 10:04:46;;;;;;;;;27.25;21.50;;;;;14.49;69.99;101642.47;4941610;28;45329;-61
2021/10/25 10:07:15;;;;;;;;;31.00;25.00;;;;;14.52;70.12;101638.78;4941852;28;45517;-61
2021/10/25 10:09:46;;;;;;;;;23.50;21.50;;;;;14.52;69.88;101636.13;4941180;28;45487;-61
2021/10/25 10:12:19;;;;;;;;;27.50;18.75;;;;;14.58;70.26;101642.84;4941346;28;46311;-61
2021/10/25 10:14:50;;;;;;;;;28.75;21.50;;;;;14.65;69.70;101637.09;4941297;28;45354;-60
2021/10/25 10:17:29;;;;;;;;;26.75;20.00;;;;;14.71;69.70;101643.81;4941646;28;45357;-60
2021/10/25 10:19:57;;;;;;;;;24.75;21.25;;;;;14.75;69.28;101648.81;4939455;28;45575;-61
2021/10/25 10:22:24;;;;;;;;;28.00;25.00;;;;;14.80;69.43;101648.53;4934501;28;46308;-61
2021/10/25 10:24:50;;;;;;;;;27.50;23.75;;;;;14.84;69.33;101655.34;4940978;28;45416;-61
2021/10/25 10:27:23;;;;;;;;;24.25;21.75;;;;;14.86;69.11;101645.50;4941453;28;45531;-61
2021/10/25 10:29:53;;;;;;;;;28.50;23.50;;;;;14.92;69.13;101650.41;4941483;28;45373;-61
2021/10/25 10:32:21;;;;;;;;;24.25;22.25;;;;;14.99;68.69;101653.53;4940965;28;45157;-61
2021/10/25 10:34:51;;;;;;;;;29.00;24.25;;;;;15.05;69.34;101648.69;4941197;28;45287;-61
2021/10/25 10:37:23;;;;;;;;;45.50;30.75;;;;;15.24;69.09;101655.47;4937791;28;46626;-62
2021/10/25 10:40:06;;;;;;;;;26.75;25.25;;;;;15.40;68.52;101665.94;4942206;28;45366;-61
2021/10/25 10:42:34;;;;;;;;;29.25;23.00;;;;;15.35;68.06;101664.47;4956051;28;46813;-61
2021/10/25 10:45:07;;;;;;;;;30.75;24.75;;;;;15.30;68.67;101669.19;4938612;28;45364;-61
2021/10/25 10:47:51;;;;;;;;;25.50;24.75;;;;;15.24;68.51;101666.09;4944119;28;45302;-61
2021/10/25 10:50:46;;;;;;;;;34.25;27.75;;;;;15.18;68.86;101669.16;4944261;28;45427;-60
2021/10/25 10:53:22;;;;;;;;;32.00;27.25;;;;;15.13;68.79;101673.91;4943350;28;45839;-60
2021/10/25 10:55:51;;;;;;;;;30.50;25.75;;;;;15.03;68.96;101671.81;4943536;28;45741;-59
2021/10/25 10:58:27;;;;;;;;;28.00;21.75;;;;;14.94;68.93;101664.44;4944313;28;45252;-58
2021/10/25 11:01:05;;;;;;;;;22.75;16.50;;;;;14.84;69.33;101673.91;4944445;28;45224;-61
2021/10/25 11:03:30;;;;;;;;;17.25;14.50;;;;;14.75;69.74;101672.69;4936715;28;46456;-62
2021/10/25 11:06:10;;;;;;;;;13.75;13.75;;;;;14.70;69.71;101679.25;4943072;28;45469;-63
2021/10/25 11:08:42;;;;;;;;;12.75;12.75;;;;;14.62;70.05;101679.72;4944116;28;45325;-63
2021/10/25 11:11:18;;;;;;;;;13.50;11.75;;;;;14.57;70.32;101681.78;4944019;28;45563;-61
2021/10/25 11:13:51;;;;;;;;;15.75;12.75;;;;;14.51;70.25;101675.03;4943351;28;45462;-60
2021/10/25 11:18:49;;;;;;;;;14.00;12.00;;;;;14.54;70.87;101676.69;4943495;28;45410;-60
2021/10/25 11:21:29;;;;;;;;;16.25;14.50;;;;;14.55;70.83;101666.91;4932454;28;45489;-60
2021/10/25 11:24:05;;;;;;;;;13.00;11.00;;;;;14.54;70.84;101666.06;4943096;28;46333;-58
2021/10/25 11:26:32;;;;;;;;;12.00;10.00;;;;;14.57;70.96;101662.38;4943384;28;45409;-61
2021/10/25 11:29:07;;;;;;;;;14.25;10.75;;;;;14.59;70.57;101668.41;4943301;28;45311;-60
2021/10/25 11:31:36;;;;;;;;;10.75;10.00;;;;;14.60;70.51;101665.66;4943464;28;45474;-63
2021/10/25 11:34:08;;;;;;;;;14.25;12.00;;;;;14.61;70.71;101658.56;4943273;28;46079;-60
2021/10/25 11:36:35;;;;;;;;;10.75;10.25;;;;;14.68;70.75;101654.59;4943288;28;45505;-60
2021/10/25 11:39:08;;;;;;;;;16.75;11.50;;;;;14.71;70.42;101657.06;4943269;28;45341;-60
2021/10/25 11:41:45;;;;;;;;;11.00;10.75;;;;;14.76;70.45;101657.63;4943234;28;45418;-58
2021/10/25 11:44:13;;;;;;;;;13.00;10.25;;;;;14.82;70.42;101659.06;4937339;28;45978;-60
2021/10/25 11:46:39;;;;;;;;;12.50;10.50;;;;;14.90;70.69;101664.72;4943223;28;45345;-59
2021/10/25 11:49:05;;;;;;;;;20.25;13.50;;;;;14.95;70.68;101660.00;4943252;28;45346;-59
2021/10/25 11:51:31;;;;;;;;;14.25;12.00;;;;;15.01;70.49;101660.47;4943371;28;45267;-59
2021/10/25 11:54:00;;;;;;;;;14.00;10.50;;;;;15.08;69.97;101658.25;4942348;28;45714;-59
2021/10/25 11:56:29;;;;;;;;;13.50;11.75;;;;;15.14;69.82;101657.00;4943081;28;45525;-59
2021/10/25 11:58:55;;;;;;;;;13.00;12.00;;;;;15.18;70.03;101648.78;4939715;28;45465;-58
2021/10/25 12:01:21;;;;;;;;;22.00;16.00;;;;;15.23;69.96;101651.97;4943242;28;45601;-61
2021/10/25 12:03:47;;;;;;;;;16.25;13.25;;;;;15.29;69.24;101653.38;4942778;28;45418;-59
2021/10/25 12:06:23;;;;;;;;;16.50;13.50;;;;;15.32;69.80;101658.47;4942775;28;45310;-59
2021/10/25 12:09:05;;;;;;;;;16.50;13.00;;;;;15.37;69.60;101653.75;4941925;28;45450;-59
2021/10/25 12:12:03;;;;;;;;;17.25;14.50;;;;;15.40;69.29;101648.22;4942885;28;45724;-60
2021/10/25 12:14:30;;;;;;;;;13.25;11.00;;;;;15.42;69.31;101653.44;4942582;28;45453;-59
2021/10/25 12:16:56;;;;;;;;;16.25;13.25;;;;;15.43;69.38;101653.34;4942880;28;45260;-59
2021/10/25 12:19:23;;;;;;;;;11.00;10.75;;;;;15.45;69.52;101647.94;4942721;28;45425;-59
2021/10/25 12:21:49;;;;;;;;;14.00;12.00;;;;;15.47;69.35;101646.03;4935931;28;45269;-58
2021/10/25 12:24:15;;;;;;;;;18.50;13.75;;;;;15.49;69.51;101639.69;4942404;28;45370;-59
2021/10/25 12:26:43;;;;;;;;;20.00;15.00;;;;;15.52;69.22;101644.78;4942614;28;45612;-59
2021/10/25 12:29:17;;;;;;;;;14.00;12.75;;;;;15.54;69.21;101637.56;4940897;28;45432;-58
2021/10/25 12:31:44;;;;;;;;;18.75;12.50;;;;;15.58;69.09;101632.91;4941230;28;45401;-59
2021/10/25 12:34:10;;;;;;;;;14.75;12.00;;;;;15.61;69.16;101630.91;4940813;28;45429;-59
2021/10/25 12:36:39;;;;;;;;;15.50;11.50;;;;;15.61;69.28;101622.94;4940899;28;45378;-59
2021/10/25 12:39:11;;;;;;;;;15.00;14.25;;;;;15.61;68.85;101622.94;4940672;28;45517;-59
2021/10/25 12:41:49;;;;;;;;;14.00;12.00;;;;;15.63;68.80;101620.19;4940518;28;45534;-58
2021/10/25 12:44:33;;;;;;;;;17.50;13.50;;;;;15.70;69.02;101607.34;4941528;28;45676;-59
2021/10/25 12:47:11;;;;;;;;;18.75;12.75;;;;;15.77;68.69;101609.50;4937485;28;45335;-59
2021/10/25 12:49:37;;;;;;;;;19.50;13.75;;;;;15.82;68.50;101615.38;4943007;28;45187;-59
2021/10/25 12:52:10;;;;;;;;;14.50;12.50;;;;;15.88;68.61;101614.97;4943091;28;45479;-59
2021/10/25 12:54:37;;;;;;;;;11.00;11.00;;;;;15.98;68.38;101609.03;4942499;28;46610;-59
2021/10/25 12:57:18;;;;;;;;;15.50;13.25;;;;;16.06;68.35;101614.66;4942619;28;45236;-59
2021/10/25 12:59:55;;;;;;;;;15.50;9.50;;;;;16.10;68.04;101613.47;4942696;28;45329;-59
2021/10/25 13:02:24;;;;;;;;;10.50;9.75;;;;;16.12;67.80;101609.78;4943001;28;45421;-59